KHYW

Conway-Horry County Airport

Conway, South Carolina, USA
METAR KHYW 160815Z AUTO 22003KT 7SM CLR 09/09 A2999 RMK AO2
Observed Flight Rules
Dec-16 @ 08:15 UTC (24 minutes ago) Visual Flight Rules
Wind Visibility Clouds
220° at 3 knots 7 miles
  • Clear skies
Temperatures Readings
Current 9°C / 48°F
Dewpoint 9°C / 48°F
Humidity 100%
Altimeter 29.99" Hg
Pressure 1016 hPa
Elevation 11
METAR KHYW 160815Z AUTO 22003KT 7SM CLR 09/09 A2999 RMK AO2
Observed Flight Rules
Dec-16 @ 08:15 UTC
(24 minutes ago)
VFR
Wind Visibility
220° at 3 knots 7 miles
Clouds
  • Clear skies
Temperature Dewpoint
9°C / 48°F 9°C / 48°F
Humidity Altimeter Pressure
100% 29.99" Hg 1016 hPa